sensor_id;sensor_type;location;lat;lon;timestamp;P1;durP1;ratioP1;P2;durP2;ratioP2
18659;SDS011;9459;50.254;19.014;2023-02-01T00:01:24;12.57;;;8.35;;
18659;SDS011;9459;50.254;19.014;2023-02-01T00:03:53;15.82;;;8.90;;
18659;SDS011;9459;50.254;19.014;2023-02-01T00:06:23;15.85;;;9.02;;
18659;SDS011;9459;50.254;19.014;2023-02-01T00:08:52;14.85;;;8.73;;
18659;SDS011;9459;50.254;19.014;2023-02-01T00:11:20;16.60;;;8.88;;
18659;SDS011;9459;50.254;19.014;2023-02-01T00:13:49;15.80;;;8.63;;
18659;SDS011;9459;50.254;19.014;2023-02-01T00:16:18;12.90;;;8.10;;
18659;SDS011;9459;50.254;19.014;2023-02-01T00:18:49;16.17;;;9.17;;
18659;SDS011;9459;50.254;19.014;2023-02-01T00:21:18;13.57;;;8.05;;
18659;SDS011;9459;50.254;19.014;2023-02-01T00:23:49;13.45;;;7.40;;
18659;SDS011;9459;50.254;19.014;2023-02-01T00:26:18;12.05;;;7.22;;
18659;SDS011;9459;50.254;19.014;2023-02-01T00:28:47;12.55;;;7.85;;
18659;SDS011;9459;50.254;19.014;2023-02-01T00:31:15;13.80;;;7.63;;
18659;SDS011;9459;50.254;19.014;2023-02-01T00:33:46;11.73;;;7.28;;
18659;SDS011;9459;50.254;19.014;2023-02-01T00:36:15;14.13;;;7.53;;
18659;SDS011;9459;50.254;19.014;2023-02-01T00:38:43;11.50;;;6.38;;
18659;SDS011;9459;50.254;19.014;2023-02-01T00:41:14;9.82;;;5.72;;
18659;SDS011;9459;50.254;19.014;2023-02-01T00:43:44;11.13;;;6.18;;
18659;SDS011;9459;50.254;19.014;2023-02-01T00:46:13;12.45;;;6.13;;
18659;SDS011;9459;50.254;19.014;2023-02-01T00:48:43;12.68;;;6.60;;
18659;SDS011;9459;50.254;19.014;2023-02-01T00:51:12;10.38;;;5.82;;
18659;SDS011;9459;50.254;19.014;2023-02-01T00:53:42;8.70;;;5.60;;
18659;SDS011;9459;50.254;19.014;2023-02-01T00:56:11;8.93;;;5.03;;
18659;SDS011;9459;50.254;19.014;2023-02-01T00:58:41;7.90;;;3.85;;
18659;SDS011;9459;50.254;19.014;2023-02-01T01:01:12;7.10;;;3.60;;
18659;SDS011;9459;50.254;19.014;2023-02-01T01:03:42;7.53;;;3.85;;
18659;SDS011;9459;50.254;19.014;2023-02-01T01:06:12;5.65;;;2.92;;
18659;SDS011;9459;50.254;19.014;2023-02-01T01:08:42;5.50;;;2.50;;
18659;SDS011;9459;50.254;19.014;2023-02-01T01:11:12;6.38;;;3.28;;
18659;SDS011;9459;50.254;19.014;2023-02-01T01:13:43;4.00;;;2.20;;
18659;SDS011;9459;50.254;19.014;2023-02-01T01:16:13;4.53;;;2.10;;
18659;SDS011;9459;50.254;19.014;2023-02-01T01:18:42;4.75;;;2.28;;
18659;SDS011;9459;50.254;19.014;2023-02-01T01:21:11;3.25;;;1.42;;
18659;SDS011;9459;50.254;19.014;2023-02-01T01:23:40;3.22;;;1.33;;
18659;SDS011;9459;50.254;19.014;2023-02-01T01:26:10;1.60;;;0.90;;
18659;SDS011;9459;50.254;19.014;2023-02-01T01:28:40;5.43;;;1.30;;
18659;SDS011;9459;50.254;19.014;2023-02-01T01:31:10;5.82;;;1.42;;
18659;SDS011;9459;50.254;19.014;2023-02-01T01:33:40;5.88;;;1.13;;
18659;SDS011;9459;50.254;19.014;2023-02-01T01:36:10;5.10;;;1.27;;
18659;SDS011;9459;50.254;19.014;2023-02-01T01:38:39;6.00;;;1.40;;
18659;SDS011;9459;50.254;19.014;2023-02-01T01:41:09;3.95;;;1.10;;
18659;SDS011;9459;50.254;19.014;2023-02-01T01:43:51;3.95;;;1.33;;
18659;SDS011;9459;50.254;19.014;2023-02-01T01:46:23;5.20;;;1.20;;
18659;SDS011;9459;50.254;19.014;2023-02-01T01:51:23;7.63;;;1.10;;
18659;SDS011;9459;50.254;19.014;2023-02-01T01:53:56;3.00;;;0.80;;
18659;SDS011;9459;50.254;19.014;2023-02-01T01:56:27;4.70;;;0.95;;
18659;SDS011;9459;50.254;19.014;2023-02-01T01:58:57;5.85;;;0.90;;
18659;SDS011;9459;50.254;19.014;2023-02-01T02:01:27;4.28;;;1.00;;
18659;SDS011;9459;50.254;19.014;2023-02-01T02:03:56;4.78;;;1.50;;
18659;SDS011;9459;50.254;19.014;2023-02-01T02:06:27;4.45;;;1.08;;
18659;SDS011;9459;50.254;19.014;2023-02-01T02:09:01;6.95;;;1.08;;
18659;SDS011;9459;50.254;19.014;2023-02-01T02:11:32;3.58;;;0.95;;
18659;SDS011;9459;50.254;19.014;2023-02-01T02:14:01;3.55;;;0.85;;
18659;SDS011;9459;50.254;19.014;2023-02-01T02:16:39;3.08;;;0.80;;
18659;SDS011;9459;50.254;19.014;2023-02-01T02:21:56;4.75;;;0.90;;
18659;SDS011;9459;50.254;19.014;2023-02-01T02:24:36;4.45;;;1.52;;
18659;SDS011;9459;50.254;19.014;2023-02-01T02:27:23;4.68;;;0.90;;
18659;SDS011;9459;50.254;19.014;2023-02-01T02:30:02;2.75;;;1.20;;
18659;SDS011;9459;50.254;19.014;2023-02-01T02:33:12;3.40;;;1.35;;
18659;SDS011;9459;50.254;19.014;2023-02-01T02:36:16;3.75;;;1.00;;
18659;SDS011;9459;50.254;19.014;2023-02-01T02:38:49;4.13;;;1.20;;
18659;SDS011;9459;50.254;19.014;2023-02-01T02:41:23;4.30;;;1.05;;
18659;SDS011;9459;50.254;19.014;2023-02-01T02:44:13;3.65;;;1.10;;
18659;SDS011;9459;50.254;19.014;2023-02-01T02:47:05;4.32;;;1.17;;
18659;SDS011;9459;50.254;19.014;2023-02-01T02:50:11;3.40;;;1.13;;
18659;SDS011;9459;50.254;19.014;2023-02-01T02:53:02;3.83;;;0.93;;
18659;SDS011;9459;50.254;19.014;2023-02-01T02:55:49;4.25;;;1.20;;
18659;SDS011;9459;50.254;19.014;2023-02-01T02:58:19;4.38;;;0.90;;
18659;SDS011;9459;50.254;19.014;2023-02-01T03:01:05;3.13;;;1.17;;
18659;SDS011;9459;50.254;19.014;2023-02-01T03:03:51;3.75;;;1.05;;
18659;SDS011;9459;50.254;19.014;2023-02-01T03:06:38;4.15;;;1.30;;
18659;SDS011;9459;50.254;19.014;2023-02-01T03:09:10;3.10;;;1.13;;
18659;SDS011;9459;50.254;19.014;2023-02-01T03:11:42;3.97;;;1.40;;
18659;SDS011;9459;50.254;19.014;2023-02-01T03:14:29;3.08;;;1.45;;
18659;SDS011;9459;50.254;19.014;2023-02-01T03:17:00;4.80;;;1.30;;
18659;SDS011;9459;50.254;19.014;2023-02-01T03:19:33;4.55;;;1.30;;
18659;SDS011;9459;50.254;19.014;2023-02-01T03:22:05;4.20;;;1.10;;
18659;SDS011;9459;50.254;19.014;2023-02-01T03:24:37;4.35;;;1.30;;
18659;SDS011;9459;50.254;19.014;2023-02-01T03:27:08;2.95;;;1.25;;
18659;SDS011;9459;50.254;19.014;2023-02-01T03:29:40;4.97;;;1.48;;
18659;SDS011;9459;50.254;19.014;2023-02-01T03:32:11;4.20;;;1.20;;
18659;SDS011;9459;50.254;19.014;2023-02-01T03:34:40;3.38;;;1.02;;
18659;SDS011;9459;50.254;19.014;2023-02-01T03:37:10;2.95;;;1.33;;
18659;SDS011;9459;50.254;19.014;2023-02-01T03:39:41;5.90;;;1.40;;
18659;SDS011;9459;50.254;19.014;2023-02-01T03:42:14;3.08;;;0.90;;
18659;SDS011;9459;50.254;19.014;2023-02-01T03:44:47;2.25;;;1.10;;
18659;SDS011;9459;50.254;19.014;2023-02-01T03:47:18;2.60;;;1.10;;
18659;SDS011;9459;50.254;19.014;2023-02-01T03:49:49;3.03;;;1.30;;
18659;SDS011;9459;50.254;19.014;2023-02-01T03:52:22;4.57;;;1.30;;
18659;SDS011;9459;50.254;19.014;2023-02-01T03:54:53;4.80;;;1.70;;
18659;SDS011;9459;50.254;19.014;2023-02-01T03:57:23;2.15;;;1.00;;
18659;SDS011;9459;50.254;19.014;2023-02-01T03:59:55;1.70;;;0.80;;
18659;SDS011;9459;50.254;19.014;2023-02-01T04:02:32;1.80;;;0.93;;
18659;SDS011;9459;50.254;19.014;2023-02-01T04:05:01;3.35;;;1.30;;
18659;SDS011;9459;50.254;19.014;2023-02-01T04:07:30;3.40;;;1.60;;
18659;SDS011;9459;50.254;19.014;2023-02-01T04:09:59;2.22;;;1.17;;
18659;SDS011;9459;50.254;19.014;2023-02-01T04:12:30;2.55;;;1.40;;
18659;SDS011;9459;50.254;19.014;2023-02-01T04:14:58;3.03;;;1.40;;
18659;SDS011;9459;50.254;19.014;2023-02-01T04:17:27;5.20;;;2.08;;
18659;SDS011;9459;50.254;19.014;2023-02-01T04:19:55;12.48;;;5.57;;
18659;SDS011;9459;50.254;19.014;2023-02-01T04:22:24;10.93;;;4.82;;
18659;SDS011;9459;50.254;19.014;2023-02-01T04:24:54;9.38;;;2.92;;
18659;SDS011;9459;50.254;19.014;2023-02-01T04:27:22;5.75;;;2.45;;
18659;SDS011;9459;50.254;19.014;2023-02-01T04:29:53;6.70;;;2.30;;
18659;SDS011;9459;50.254;19.014;2023-02-01T04:32:24;3.70;;;2.08;;
18659;SDS011;9459;50.254;19.014;2023-02-01T04:34:52;4.32;;;2.30;;
18659;SDS011;9459;50.254;19.014;2023-02-01T04:37:20;6.68;;;3.50;;
18659;SDS011;9459;50.254;19.014;2023-02-01T04:39:49;8.63;;;4.68;;
18659;SDS011;9459;50.254;19.014;2023-02-01T04:42:19;8.85;;;6.22;;
18659;SDS011;9459;50.254;19.014;2023-02-01T04:44:47;10.38;;;7.50;;
18659;SDS011;9459;50.254;19.014;2023-02-01T04:47:15;11.52;;;7.72;;
18659;SDS011;9459;50.254;19.014;2023-02-01T04:49:44;9.27;;;5.90;;
18659;SDS011;9459;50.254;19.014;2023-02-01T04:52:12;10.73;;;5.55;;
18659;SDS011;9459;50.254;19.014;2023-02-01T04:54:41;9.80;;;7.07;;
18659;SDS011;9459;50.254;19.014;2023-02-01T04:57:09;11.77;;;7.47;;
18659;SDS011;9459;50.254;19.014;2023-02-01T04:59:41;13.70;;;8.88;;
18659;SDS011;9459;50.254;19.014;2023-02-01T05:02:10;16.80;;;11.30;;
18659;SDS011;9459;50.254;19.014;2023-02-01T05:04:38;14.73;;;10.43;;
18659;SDS011;9459;50.254;19.014;2023-02-01T05:07:07;14.73;;;9.73;;
18659;SDS011;9459;50.254;19.014;2023-02-01T05:09:35;14.48;;;10.48;;
18659;SDS011;9459;50.254;19.014;2023-02-01T05:12:04;12.10;;;8.52;;
18659;SDS011;9459;50.254;19.014;2023-02-01T05:14:51;20.50;;;9.90;;
18659;SDS011;9459;50.254;19.014;2023-02-01T05:17:19;12.93;;;8.45;;
18659;SDS011;9459;50.254;19.014;2023-02-01T05:19:48;15.52;;;10.77;;
18659;SDS011;9459;50.254;19.014;2023-02-01T05:22:16;13.07;;;9.45;;
18659;SDS011;9459;50.254;19.014;2023-02-01T05:24:45;13.38;;;8.68;;
18659;SDS011;9459;50.254;19.014;2023-02-01T05:27:13;9.52;;;8.00;;
18659;SDS011;9459;50.254;19.014;2023-02-01T05:29:42;13.05;;;9.65;;
18659;SDS011;9459;50.254;19.014;2023-02-01T05:32:11;17.98;;;9.43;;
18659;SDS011;9459;50.254;19.014;2023-02-01T05:34:48;14.93;;;9.15;;
18659;SDS011;9459;50.254;19.014;2023-02-01T05:37:16;13.57;;;8.50;;
18659;SDS011;9459;50.254;19.014;2023-02-01T05:39:45;15.48;;;8.55;;
18659;SDS011;9459;50.254;19.014;2023-02-01T05:42:13;14.68;;;8.30;;
18659;SDS011;9459;50.254;19.014;2023-02-01T05:44:42;14.50;;;7.47;;
18659;SDS011;9459;50.254;19.014;2023-02-01T05:47:11;11.55;;;6.05;;
18659;SDS011;9459;50.254;19.014;2023-02-01T05:49:40;16.00;;;6.15;;
18659;SDS011;9459;50.254;19.014;2023-02-01T05:52:08;14.45;;;4.75;;
18659;SDS011;9459;50.254;19.014;2023-02-01T05:54:37;11.73;;;4.28;;
18659;SDS011;9459;50.254;19.014;2023-02-01T05:57:05;8.98;;;4.05;;
18659;SDS011;9459;50.254;19.014;2023-02-01T05:59:34;11.48;;;4.22;;
18659;SDS011;9459;50.254;19.014;2023-02-01T06:02:07;11.23;;;3.55;;
18659;SDS011;9459;50.254;19.014;2023-02-01T06:04:38;9.68;;;4.03;;
18659;SDS011;9459;50.254;19.014;2023-02-01T06:07:06;13.68;;;3.78;;
18659;SDS011;9459;50.254;19.014;2023-02-01T06:09:37;13.88;;;4.15;;
18659;SDS011;9459;50.254;19.014;2023-02-01T06:12:05;15.05;;;4.22;;
18659;SDS011;9459;50.254;19.014;2023-02-01T06:14:34;14.20;;;3.92;;
18659;SDS011;9459;50.254;19.014;2023-02-01T06:17:03;11.82;;;3.17;;
18659;SDS011;9459;50.254;19.014;2023-02-01T06:19:33;8.10;;;3.35;;
18659;SDS011;9459;50.254;19.014;2023-02-01T06:22:02;7.85;;;3.08;;
18659;SDS011;9459;50.254;19.014;2023-02-01T06:24:33;12.27;;;3.85;;
18659;SDS011;9459;50.254;19.014;2023-02-01T06:27:01;9.95;;;3.17;;
18659;SDS011;9459;50.254;19.014;2023-02-01T06:29:29;12.10;;;3.92;;
18659;SDS011;9459;50.254;19.014;2023-02-01T06:31:58;15.23;;;4.20;;
18659;SDS011;9459;50.254;19.014;2023-02-01T06:34:27;15.55;;;4.15;;
18659;SDS011;9459;50.254;19.014;2023-02-01T06:36:55;13.52;;;4.47;;
18659;SDS011;9459;50.254;19.014;2023-02-01T06:39:25;14.43;;;4.55;;
18659;SDS011;9459;50.254;19.014;2023-02-01T06:41:55;12.75;;;4.43;;
18659;SDS011;9459;50.254;19.014;2023-02-01T06:44:23;10.32;;;3.78;;
18659;SDS011;9459;50.254;19.014;2023-02-01T06:46:51;14.20;;;4.78;;
18659;SDS011;9459;50.254;19.014;2023-02-01T06:49:21;13.35;;;4.82;;
18659;SDS011;9459;50.254;19.014;2023-02-01T06:51:50;11.90;;;4.18;;
18659;SDS011;9459;50.254;19.014;2023-02-01T06:54:18;16.00;;;5.05;;
18659;SDS011;9459;50.254;19.014;2023-02-01T06:56:48;16.42;;;5.40;;
18659;SDS011;9459;50.254;19.014;2023-02-01T06:59:17;14.70;;;5.22;;
18659;SDS011;9459;50.254;19.014;2023-02-01T07:01:45;17.58;;;6.18;;
18659;SDS011;9459;50.254;19.014;2023-02-01T07:04:14;19.63;;;5.43;;
18659;SDS011;9459;50.254;19.014;2023-02-01T07:06:42;15.73;;;4.82;;
18659;SDS011;9459;50.254;19.014;2023-02-01T07:09:11;15.20;;;5.30;;
18659;SDS011;9459;50.254;19.014;2023-02-01T07:11:41;19.85;;;5.55;;
18659;SDS011;9459;50.254;19.014;2023-02-01T07:14:12;13.55;;;5.20;;
18659;SDS011;9459;50.254;19.014;2023-02-01T07:16:40;20.63;;;6.53;;
18659;SDS011;9459;50.254;19.014;2023-02-01T07:19:09;20.25;;;7.78;;
18659;SDS011;9459;50.254;19.014;2023-02-01T07:21:37;21.48;;;7.45;;
18659;SDS011;9459;50.254;19.014;2023-02-01T07:24:06;28.95;;;10.25;;
18659;SDS011;9459;50.254;19.014;2023-02-01T07:26:34;21.75;;;9.00;;
18659;SDS011;9459;50.254;19.014;2023-02-01T07:29:03;15.32;;;5.47;;
18659;SDS011;9459;50.254;19.014;2023-02-01T07:31:32;14.75;;;5.90;;
18659;SDS011;9459;50.254;19.014;2023-02-01T07:34:01;16.23;;;6.60;;
18659;SDS011;9459;50.254;19.014;2023-02-01T07:36:29;20.42;;;6.22;;
18659;SDS011;9459;50.254;19.014;2023-02-01T07:38:58;15.65;;;4.78;;
18659;SDS011;9459;50.254;19.014;2023-02-01T07:41:26;17.40;;;6.18;;
18659;SDS011;9459;50.254;19.014;2023-02-01T07:43:55;19.55;;;7.20;;
18659;SDS011;9459;50.254;19.014;2023-02-01T07:46:24;32.22;;;12.45;;
18659;SDS011;9459;50.254;19.014;2023-02-01T07:48:54;22.08;;;8.40;;
18659;SDS011;9459;50.254;19.014;2023-02-01T07:51:23;21.37;;;7.53;;
18659;SDS011;9459;50.254;19.014;2023-02-01T07:53:51;26.13;;;9.40;;
18659;SDS011;9459;50.254;19.014;2023-02-01T07:56:22;18.33;;;6.95;;
18659;SDS011;9459;50.254;19.014;2023-02-01T07:58:53;21.17;;;7.70;;
18659;SDS011;9459;50.254;19.014;2023-02-01T08:01:23;20.50;;;7.57;;
18659;SDS011;9459;50.254;19.014;2023-02-01T08:03:54;25.38;;;8.07;;
18659;SDS011;9459;50.254;19.014;2023-02-01T08:06:23;21.52;;;7.30;;
18659;SDS011;9459;50.254;19.014;2023-02-01T08:08:52;22.55;;;8.38;;
18659;SDS011;9459;50.254;19.014;2023-02-01T08:11:22;18.70;;;7.40;;
18659;SDS011;9459;50.254;19.014;2023-02-01T08:13:51;20.00;;;7.07;;
18659;SDS011;9459;50.254;19.014;2023-02-01T08:16:22;19.45;;;7.82;;
18659;SDS011;9459;50.254;19.014;2023-02-01T08:18:51;21.55;;;8.90;;
18659;SDS011;9459;50.254;19.014;2023-02-01T08:21:22;25.45;;;9.88;;
18659;SDS011;9459;50.254;19.014;2023-02-01T08:23:52;20.20;;;9.65;;
18659;SDS011;9459;50.254;19.014;2023-02-01T08:26:21;18.70;;;7.85;;
18659;SDS011;9459;50.254;19.014;2023-02-01T08:28:51;16.88;;;7.63;;
18659;SDS011;9459;50.254;19.014;2023-02-01T08:31:22;18.38;;;7.20;;
18659;SDS011;9459;50.254;19.014;2023-02-01T08:33:52;17.83;;;7.07;;
18659;SDS011;9459;50.254;19.014;2023-02-01T08:36:24;18.33;;;8.38;;
18659;SDS011;9459;50.254;19.014;2023-02-01T08:38:54;18.13;;;8.02;;
18659;SDS011;9459;50.254;19.014;2023-02-01T08:41:23;28.13;;;10.48;;
18659;SDS011;9459;50.254;19.014;2023-02-01T08:43:52;26.15;;;10.65;;
18659;SDS011;9459;50.254;19.014;2023-02-01T08:46:21;22.38;;;10.18;;
18659;SDS011;9459;50.254;19.014;2023-02-01T08:48:50;28.20;;;10.93;;
18659;SDS011;9459;50.254;19.014;2023-02-01T08:51:19;26.67;;;10.15;;
18659;SDS011;9459;50.254;19.014;2023-02-01T08:53:50;19.90;;;8.10;;
18659;SDS011;9459;50.254;19.014;2023-02-01T08:56:19;23.38;;;8.70;;
18659;SDS011;9459;50.254;19.014;2023-02-01T08:58:48;23.83;;;8.13;;
18659;SDS011;9459;50.254;19.014;2023-02-01T09:01:16;29.45;;;11.40;;
18659;SDS011;9459;50.254;19.014;2023-02-01T09:03:45;23.83;;;9.43;;
18659;SDS011;9459;50.254;19.014;2023-02-01T09:06:14;21.90;;;9.60;;
18659;SDS011;9459;50.254;19.014;2023-02-01T09:08:43;22.75;;;8.30;;
18659;SDS011;9459;50.254;19.014;2023-02-01T09:11:14;18.42;;;7.82;;
18659;SDS011;9459;50.254;19.014;2023-02-01T09:13:43;17.83;;;7.03;;
18659;SDS011;9459;50.254;19.014;2023-02-01T09:16:12;18.70;;;7.45;;
18659;SDS011;9459;50.254;19.014;2023-02-01T09:18:41;22.55;;;9.55;;
18659;SDS011;9459;50.254;19.014;2023-02-01T09:21:29;18.40;;;10.10;;
18659;SDS011;9459;50.254;19.014;2023-02-01T09:23:57;19.63;;;8.60;;
18659;SDS011;9459;50.254;19.014;2023-02-01T09:26:27;18.80;;;8.30;;
18659;SDS011;9459;50.254;19.014;2023-02-01T09:28:58;18.27;;;7.85;;
18659;SDS011;9459;50.254;19.014;2023-02-01T09:31:27;21.77;;;8.57;;
18659;SDS011;9459;50.254;19.014;2023-02-01T09:33:56;17.75;;;7.82;;
18659;SDS011;9459;50.254;19.014;2023-02-01T09:36:24;16.60;;;6.97;;
18659;SDS011;9459;50.254;19.014;2023-02-01T09:38:56;16.55;;;7.10;;
18659;SDS011;9459;50.254;19.014;2023-02-01T09:41:42;13.90;;;6.50;;
18659;SDS011;9459;50.254;19.014;2023-02-01T09:44:22;22.80;;;9.63;;
18659;SDS011;9459;50.254;19.014;2023-02-01T09:47:10;30.27;;;12.43;;
18659;SDS011;9459;50.254;19.014;2023-02-01T09:49:43;21.92;;;9.43;;
18659;SDS011;9459;50.254;19.014;2023-02-01T09:52:17;17.30;;;8.32;;
18659;SDS011;9459;50.254;19.014;2023-02-01T09:54:50;18.23;;;8.73;;
18659;SDS011;9459;50.254;19.014;2023-02-01T09:57:26;15.70;;;8.77;;
18659;SDS011;9459;50.254;19.014;2023-02-01T10:00:00;14.35;;;6.65;;
18659;SDS011;9459;50.254;19.014;2023-02-01T10:02:32;12.40;;;5.35;;
18659;SDS011;9459;50.254;19.014;2023-02-01T10:05:05;14.40;;;6.75;;
18659;SDS011;9459;50.254;19.014;2023-02-01T10:07:34;16.50;;;8.15;;
18659;SDS011;9459;50.254;19.014;2023-02-01T10:10:09;13.43;;;6.70;;
18659;SDS011;9459;50.254;19.014;2023-02-01T10:13:01;20.38;;;8.48;;
18659;SDS011;9459;50.254;19.014;2023-02-01T10:15:48;14.00;;;6.57;;
18659;SDS011;9459;50.254;19.014;2023-02-01T10:18:25;22.63;;;9.93;;
18659;SDS011;9459;50.254;19.014;2023-02-01T10:21:01;20.98;;;8.05;;
18659;SDS011;9459;50.254;19.014;2023-02-01T10:23:40;16.90;;;7.28;;
18659;SDS011;9459;50.254;19.014;2023-02-01T10:26:29;12.38;;;6.85;;
18659;SDS011;9459;50.254;19.014;2023-02-01T10:29:02;15.13;;;7.07;;
18659;SDS011;9459;50.254;19.014;2023-02-01T10:31:34;16.45;;;6.90;;
18659;SDS011;9459;50.254;19.014;2023-02-01T10:34:07;16.35;;;8.15;;
18659;SDS011;9459;50.254;19.014;2023-02-01T10:36:44;14.85;;;6.97;;
18659;SDS011;9459;50.254;19.014;2023-02-01T10:39:18;17.10;;;7.53;;
18659;SDS011;9459;50.254;19.014;2023-02-01T10:41:47;15.75;;;8.35;;
18659;SDS011;9459;50.254;19.014;2023-02-01T10:44:18;20.40;;;9.57;;
18659;SDS011;9459;50.254;19.014;2023-02-01T10:46:49;23.52;;;10.40;;
18659;SDS011;9459;50.254;19.014;2023-02-01T10:49:18;23.70;;;11.23;;
18659;SDS011;9459;50.254;19.014;2023-02-01T10:51:51;20.88;;;9.00;;
18659;SDS011;9459;50.254;19.014;2023-02-01T10:54:22;16.38;;;7.68;;
18659;SDS011;9459;50.254;19.014;2023-02-01T10:57:00;24.90;;;8.98;;
18659;SDS011;9459;50.254;19.014;2023-02-01T10:59:30;16.83;;;7.63;;
18659;SDS011;9459;50.254;19.014;2023-02-01T11:02:05;15.63;;;7.32;;
18659;SDS011;9459;50.254;19.014;2023-02-01T11:04:46;16.92;;;7.18;;
18659;SDS011;9459;50.254;19.014;2023-02-01T11:07:16;18.48;;;8.27;;
18659;SDS011;9459;50.254;19.014;2023-02-01T11:09:49;18.08;;;7.75;;
18659;SDS011;9459;50.254;19.014;2023-02-01T11:12:26;12.25;;;6.80;;
18659;SDS011;9459;50.254;19.014;2023-02-01T11:14:59;15.45;;;7.13;;
18659;SDS011;9459;50.254;19.014;2023-02-01T11:17:32;18.73;;;7.03;;
18659;SDS011;9459;50.254;19.014;2023-02-01T11:20:04;16.77;;;7.90;;
18659;SDS011;9459;50.254;19.014;2023-02-01T11:22:37;15.43;;;7.70;;
18659;SDS011;9459;50.254;19.014;2023-02-01T11:25:07;18.33;;;7.82;;
18659;SDS011;9459;50.254;19.014;2023-02-01T11:27:38;20.40;;;9.45;;
18659;SDS011;9459;50.254;19.014;2023-02-01T11:30:25;17.58;;;7.97;;
18659;SDS011;9459;50.254;19.014;2023-02-01T11:32:58;24.02;;;9.35;;
18659;SDS011;9459;50.254;19.014;2023-02-01T11:35:28;17.05;;;8.68;;
18659;SDS011;9459;50.254;19.014;2023-02-01T11:37:58;23.20;;;10.13;;
18659;SDS011;9459;50.254;19.014;2023-02-01T11:40:28;22.23;;;11.07;;
18659;SDS011;9459;50.254;19.014;2023-02-01T11:42:58;19.97;;;8.73;;
18659;SDS011;9459;50.254;19.014;2023-02-01T11:45:29;19.25;;;8.82;;
18659;SDS011;9459;50.254;19.014;2023-02-01T11:48:00;16.63;;;8.73;;
18659;SDS011;9459;50.254;19.014;2023-02-01T11:50:31;17.70;;;8.38;;
18659;SDS011;9459;50.254;19.014;2023-02-01T11:53:06;17.55;;;8.32;;
18659;SDS011;9459;50.254;19.014;2023-02-01T11:55:45;17.17;;;7.18;;
18659;SDS011;9459;50.254;19.014;2023-02-01T11:58:22;13.35;;;6.47;;
18659;SDS011;9459;50.254;19.014;2023-02-01T12:01:10;17.17;;;6.85;;
18659;SDS011;9459;50.254;19.014;2023-02-01T12:03:53;19.80;;;8.57;;
18659;SDS011;9459;50.254;19.014;2023-02-01T12:06:51;12.40;;;6.57;;
18659;SDS011;9459;50.254;19.014;2023-02-01T12:09:30;17.70;;;7.78;;
18659;SDS011;9459;50.254;19.014;2023-02-01T12:12:08;14.95;;;7.20;;
18659;SDS011;9459;50.254;19.014;2023-02-01T12:14:45;15.07;;;6.93;;
18659;SDS011;9459;50.254;19.014;2023-02-01T12:23:27;13.93;;;6.30;;
18659;SDS011;9459;50.254;19.014;2023-02-01T12:26:07;15.35;;;5.93;;
18659;SDS011;9459;50.254;19.014;2023-02-01T12:28:51;11.35;;;5.75;;
18659;SDS011;9459;50.254;19.014;2023-02-01T12:31:32;13.00;;;6.53;;
18659;SDS011;9459;50.254;19.014;2023-02-01T12:37:11;12.63;;;6.38;;
18659;SDS011;9459;50.254;19.014;2023-02-01T12:39:47;13.18;;;5.97;;
18659;SDS011;9459;50.254;19.014;2023-02-01T12:42:23;12.85;;;5.65;;
18659;SDS011;9459;50.254;19.014;2023-02-01T12:44:55;14.32;;;5.97;;
18659;SDS011;9459;50.254;19.014;2023-02-01T12:47:27;15.75;;;6.38;;
18659;SDS011;9459;50.254;19.014;2023-02-01T12:50:00;16.48;;;7.28;;
18659;SDS011;9459;50.254;19.014;2023-02-01T12:52:35;14.95;;;6.35;;
18659;SDS011;9459;50.254;19.014;2023-02-01T12:55:09;21.27;;;8.40;;
18659;SDS011;9459;50.254;19.014;2023-02-01T12:57:45;18.98;;;9.23;;
18659;SDS011;9459;50.254;19.014;2023-02-01T13:00:17;30.30;;;12.55;;
18659;SDS011;9459;50.254;19.014;2023-02-01T13:02:51;22.08;;;10.32;;
18659;SDS011;9459;50.254;19.014;2023-02-01T13:05:24;13.82;;;7.20;;
18659;SDS011;9459;50.254;19.014;2023-02-01T13:07:59;17.50;;;7.80;;
18659;SDS011;9459;50.254;19.014;2023-02-01T13:10:30;16.55;;;7.38;;
18659;SDS011;9459;50.254;19.014;2023-02-01T13:13:03;14.68;;;7.13;;
18659;SDS011;9459;50.254;19.014;2023-02-01T13:15:39;20.90;;;8.55;;
18659;SDS011;9459;50.254;19.014;2023-02-01T13:18:14;21.90;;;9.10;;
18659;SDS011;9459;50.254;19.014;2023-02-01T13:20:46;20.95;;;8.95;;
18659;SDS011;9459;50.254;19.014;2023-02-01T13:23:21;18.15;;;8.55;;
18659;SDS011;9459;50.254;19.014;2023-02-01T13:25:54;16.65;;;8.57;;
18659;SDS011;9459;50.254;19.014;2023-02-01T13:28:25;34.58;;;14.25;;
18659;SDS011;9459;50.254;19.014;2023-02-01T13:33:40;32.60;;;14.35;;
18659;SDS011;9459;50.254;19.014;2023-02-01T13:36:28;18.25;;;9.63;;
18659;SDS011;9459;50.254;19.014;2023-02-01T13:39:18;35.40;;;17.02;;
18659;SDS011;9459;50.254;19.014;2023-02-01T13:42:04;38.88;;;18.73;;
18659;SDS011;9459;50.254;19.014;2023-02-01T13:44:42;34.00;;;14.38;;
18659;SDS011;9459;50.254;19.014;2023-02-01T13:47:15;24.73;;;12.57;;
18659;SDS011;9459;50.254;19.014;2023-02-01T13:49:49;14.93;;;7.50;;
18659;SDS011;9459;50.254;19.014;2023-02-01T13:52:24;21.13;;;8.25;;
18659;SDS011;9459;50.254;19.014;2023-02-01T13:55:25;12.98;;;6.15;;
18659;SDS011;9459;50.254;19.014;2023-02-01T13:58:01;17.95;;;7.63;;
18659;SDS011;9459;50.254;19.014;2023-02-01T14:00:33;13.75;;;6.25;;
18659;SDS011;9459;50.254;19.014;2023-02-01T14:06:00;13.85;;;6.22;;
18659;SDS011;9459;50.254;19.014;2023-02-01T14:08:38;11.85;;;5.03;;
18659;SDS011;9459;50.254;19.014;2023-02-01T14:23:14;20.98;;;12.32;;
18659;SDS011;9459;50.254;19.014;2023-02-01T14:25:48;13.68;;;8.20;;
18659;SDS011;9459;50.254;19.014;2023-02-01T14:29:03;14.88;;;9.65;;
18659;SDS011;9459;50.254;19.014;2023-02-01T14:31:51;13.75;;;8.18;;
18659;SDS011;9459;50.254;19.014;2023-02-01T14:34:22;28.60;;;15.45;;
18659;SDS011;9459;50.254;19.014;2023-02-01T14:36:56;24.90;;;12.77;;
18659;SDS011;9459;50.254;19.014;2023-02-01T14:39:29;24.08;;;13.23;;
18659;SDS011;9459;50.254;19.014;2023-02-01T14:42:02;15.45;;;10.60;;
18659;SDS011;9459;50.254;19.014;2023-02-01T14:44:35;21.95;;;13.65;;
18659;SDS011;9459;50.254;19.014;2023-02-01T14:47:09;19.00;;;12.27;;
18659;SDS011;9459;50.254;19.014;2023-02-01T14:49:42;18.40;;;12.43;;
18659;SDS011;9459;50.254;19.014;2023-02-01T14:52:19;23.25;;;16.88;;
18659;SDS011;9459;50.254;19.014;2023-02-01T14:54:49;21.50;;;14.15;;
18659;SDS011;9459;50.254;19.014;2023-02-01T14:57:24;31.63;;;19.75;;
18659;SDS011;9459;50.254;19.014;2023-02-01T14:59:56;35.78;;;14.70;;
18659;SDS011;9459;50.254;19.014;2023-02-01T15:02:28;27.92;;;16.15;;
18659;SDS011;9459;50.254;19.014;2023-02-01T15:04:58;28.60;;;17.75;;
18659;SDS011;9459;50.254;19.014;2023-02-01T15:07:27;31.08;;;19.02;;
18659;SDS011;9459;50.254;19.014;2023-02-01T15:09:57;60.78;;;30.88;;
18659;SDS011;9459;50.254;19.014;2023-02-01T15:12:26;51.28;;;27.65;;
18659;SDS011;9459;50.254;19.014;2023-02-01T15:15:13;38.90;;;23.08;;
18659;SDS011;9459;50.254;19.014;2023-02-01T15:17:49;25.63;;;15.93;;
18659;SDS011;9459;50.254;19.014;2023-02-01T15:20:19;26.77;;;20.20;;
18659;SDS011;9459;50.254;19.014;2023-02-01T15:22:52;30.92;;;22.63;;
18659;SDS011;9459;50.254;19.014;2023-02-01T15:25:23;33.53;;;18.17;;
18659;SDS011;9459;50.254;19.014;2023-02-01T15:27:52;40.55;;;20.90;;
18659;SDS011;9459;50.254;19.014;2023-02-01T15:30:24;58.22;;;30.58;;
18659;SDS011;9459;50.254;19.014;2023-02-01T15:33:03;34.85;;;19.45;;
18659;SDS011;9459;50.254;19.014;2023-02-01T15:35:35;60.13;;;33.30;;
18659;SDS011;9459;50.254;19.014;2023-02-01T15:38:18;49.05;;;27.10;;
18659;SDS011;9459;50.254;19.014;2023-02-01T15:40:56;24.38;;;15.27;;